Time;durP1;ratioP1;P1;durP2;ratioP2;P2;SDS_P1;SDS_P2;PMS_P1;PMS_P2;Temp;Humidity;BMP_temperature;BMP_pressure;BME280_temperature;BME280_humidity;BME280_pressure;Samples;Min_cycle;Max_cycle;Signal;HPM_P1;HPM_P2
2022/12/27 00:00:33;;;;;;;;;;;;;;;;;;2544510;23;19905;-89
2022/12/27 00:01:34;;;;;;;;;;;;;;;;;;2548973;23;19920;-90
2022/12/27 00:02:37;;;;;;;;;;;;;;;;;;2130480;23;10001234;-91
2022/12/27 00:03:37;;;;;;;;;;;;;;;;;;2544798;23;19913;-91
2022/12/27 00:04:38;;;;;;;;;;;;;;;;;;2548823;23;20265;-90
2022/12/27 00:05:41;;;;;;;;;;;;;;;;;;2556673;23;20090;-88
2022/12/27 00:06:42;;;;;;;;;;;;;;;;;;2544161;23;20404;-88
2022/12/27 00:07:43;;;;;;;;;;;;;;;;;;2544295;23;19914;-89
2022/12/27 00:08:43;;;;;;;;;;;;;;;;;;2560747;23;20374;-90
2022/12/27 00:09:44;;;;;;;;;;;;;;;;;;2549250;23;19908;-90
2022/12/27 00:10:44;;;;;;;;;;;;;;;;;;2544303;23;20245;-89
2022/12/27 00:11:44;;;;;;;;;;;;;;;;;;2544246;23;20006;-89
2022/12/27 00:12:45;;;;;;;;;;;;;;;;;;2548542;23;19943;-89
2022/12/27 00:13:45;;;;;;;;;;;;;;;;;;2549350;23;19908;-89
2022/12/27 00:14:45;;;;;;;;;;;;;;;;;;2544619;23;19905;-88
2022/12/27 00:15:45;;;;;;;;;;;;;;;;;;2544161;23;19904;-88
2022/12/27 00:16:46;;;;;;;;;;;;;;;;;;2548232;23;19908;-88
2022/12/27 00:17:46;;;;;;;;;;;;;;;;;;2549293;23;19972;-87
2022/12/27 00:18:48;;;;;;;;;;;;;;;;;;2549074;23;19924;-87
2022/12/27 00:19:48;;;;;;;;;;;;;;;;;;2549154;23;20584;-89
2022/12/27 00:20:48;;;;;;;;;;;;;;;;;;2543909;23;20044;-90
2022/12/27 00:21:49;;;;;;;;;;;;;;;;;;2548441;23;19904;-89
2022/12/27 00:22:49;;;;;;;;;;;;;;;;;;2549060;23;20204;-90
2022/12/27 00:23:51;;;;;;;;;;;;;;;;;;2544103;23;19959;-89
2022/12/27 00:24:53;;;;;;;;;;;;;;;;;;2544702;23;19912;-89
2022/12/27 00:26:00;;;;;;;;;;;;;;;;;;2544344;23;20327;-90
2022/12/27 00:27:00;;;;;;;;;;;;;;;;;;2559704;23;19904;-90
2022/12/27 00:28:01;;;;;;;;;;;;;;;;;;2548371;23;19904;-89
2022/12/27 00:29:01;;;;;;;;;;;;;;;;;;2544434;23;20316;-89
2022/12/27 00:30:05;;;;;;;;;;;;;;;;;;2544354;23;19956;-89
2022/12/27 00:31:05;;;;;;;;;;;;;;;;;;2547716;23;20335;-89
2022/12/27 00:32:05;;;;;;;;;;;;;;;;;;2544287;23;19909;-89
2022/12/27 00:33:06;;;;;;;;;;;;;;;;;;2544222;23;20361;-89
2022/12/27 00:34:06;;;;;;;;;;;;;;;;;;2544690;23;19966;-90
2022/12/27 00:35:07;;;;;;;;;;;;;;;;;;2544333;23;19911;-90
2022/12/27 00:36:08;;;;;;;;;;;;;;;;;;2544522;23;19912;-90
2022/12/27 00:37:08;;;;;;;;;;;;;;;;;;2548534;23;19908;-91
2022/12/27 00:38:11;;;;;;;;;;;;;;;;;;2544597;23;19904;-91
2022/12/27 00:39:11;;;;;;;;;;;;;;;;;;2545988;23;19908;-95
2022/12/27 00:40:12;;;;;;;;;;;;;;;;;;2546202;23;19983;-93
2022/12/27 00:41:12;;;;;;;;;;;;;;;;;;2545634;23;19947;-95
2022/12/27 00:42:13;;;;;;;;;;;;;;;;;;2558665;23;19908;-96
2022/12/27 00:43:14;;;;;;;;;;;;;;;;;;2546912;23;19939;-95
2022/12/27 00:44:20;;;;;;;;;;;;;;;;;;2536771;23;19957;-96
2022/12/27 00:45:23;;;;;;;;;;;;;;;;;;2549100;23;19932;-95
2022/12/27 00:46:23;;;;;;;;;;;;;;;;;;2551061;23;19944;-94
2022/12/27 00:47:23;;;;;;;;;;;;;;;;;;2547904;23;19905;-95
2022/12/27 00:48:24;;;;;;;;;;;;;;;;;;2550169;23;19916;-95
2022/12/27 00:49:24;;;;;;;;;;;;;;;;;;2549194;23;19912;-93
2022/12/27 00:50:25;;;;;;;;;;;;;;;;;;2546699;23;19962;-94
2022/12/27 00:51:25;;;;;;;;;;;;;;;;;;2535124;23;19990;-94
2022/12/27 00:52:25;;;;;;;;;;;;;;;;;;2534942;23;19905;-95
2022/12/27 00:53:27;;;;;;;;;;;;;;;;;;2547032;23;20341;-94
2022/12/27 00:54:27;;;;;;;;;;;;;;;;;;2534565;23;20250;-95
2022/12/27 00:55:30;;;;;;;;;;;;;;;;;;2546643;23;19904;-95
2022/12/27 00:56:31;;;;;;;;;;;;;;;;;;2548124;23;19905;-94
2022/12/27 00:57:31;;;;;;;;;;;;;;;;;;2547503;23;19928;-95
2022/12/27 00:58:32;;;;;;;;;;;;;;;;;;2545945;23;19968;-93
2022/12/27 00:59:32;;;;;;;;;;;;;;;;;;2546410;23;19943;-93
2022/12/27 01:00:32;;;;;;;;;;;;;;;;;;2545858;23;19947;-94
2022/12/27 01:01:34;;;;;;;;;;;;;;;;;;2546303;23;19995;-94
2022/12/27 01:02:34;;;;;;;;;;;;;;;;;;2546449;23;19944;-93
2022/12/27 01:03:35;;;;;;;;;;;;;;;;;;2562667;23;20381;-96
2022/12/27 01:04:39;;;;;;;;;;;;;;;;;;2548917;23;19904;-94
2022/12/27 01:05:40;;;;;;;;;;;;;;;;;;2549193;23;19988;-94
2022/12/27 01:06:43;;;;;;;;;;;;;;;;;;2556583;23;19940;-94
2022/12/27 01:07:43;;;;;;;;;;;;;;;;;;2556871;23;19901;-94
2022/12/27 01:08:44;;;;;;;;;;;;;;;;;;2553435;23;19911;-93
2022/12/27 01:09:44;;;;;;;;;;;;;;;;;;2549666;23;19979;-96
2022/12/27 01:10:44;;;;;;;;;;;;;;;;;;2546845;23;19905;-96
2022/12/27 01:11:45;;;;;;;;;;;;;;;;;;2546543;23;19905;-95
2022/12/27 01:12:45;;;;;;;;;;;;;;;;;;2547649;23;19952;-95
2022/12/27 01:13:46;;;;;;;;;;;;;;;;;;2546936;23;20253;-95
2022/12/27 01:14:46;;;;;;;;;;;;;;;;;;2535911;23;19944;-95
2022/12/27 01:15:49;;;;;;;;;;;;;;;;;;2548378;23;19967;-96
2022/12/27 01:16:50;;;;;;;;;;;;;;;;;;2547481;23;19990;-95
2022/12/27 01:17:50;;;;;;;;;;;;;;;;;;2546869;23;19967;-95
2022/12/27 01:18:51;;;;;;;;;;;;;;;;;;2546317;23;19905;-95
2022/12/27 01:19:51;;;;;;;;;;;;;;;;;;2533853;23;20361;-95
2022/12/27 01:20:51;;;;;;;;;;;;;;;;;;2534467;23;20313;-94
2022/12/27 01:21:51;;;;;;;;;;;;;;;;;;2533797;23;19928;-95
2022/12/27 01:22:53;;;;;;;;;;;;;;;;;;2536197;23;20194;-95
2022/12/27 01:24:04;;;;;;;;;;;;;;;;;;2539112;23;19936;-95
2022/12/27 01:25:05;;;;;;;;;;;;;;;;;;2551959;23;19919;-93
2022/12/27 01:26:07;;;;;;;;;;;;;;;;;;2551352;23;19904;-94
2022/12/27 01:27:07;;;;;;;;;;;;;;;;;;2548796;23;19905;-95
2022/12/27 01:28:08;;;;;;;;;;;;;;;;;;2548373;23;19928;-95
2022/12/27 01:29:10;;;;;;;;;;;;;;;;;;2546787;23;20345;-94
2022/12/27 01:30:11;;;;;;;;;;;;;;;;;;2535034;23;19927;-93
2022/12/27 01:31:13;;;;;;;;;;;;;;;;;;2547595;23;20293;-95
2022/12/27 01:32:13;;;;;;;;;;;;;;;;;;2547669;23;19924;-94
2022/12/27 01:33:13;;;;;;;;;;;;;;;;;;2548517;23;19914;-94
2022/12/27 01:34:14;;;;;;;;;;;;;;;;;;2548093;23;19928;-95
2022/12/27 01:35:14;;;;;;;;;;;;;;;;;;2547873;23;19963;-95
2022/12/27 01:36:16;;;;;;;;;;;;;;;;;;2548692;23;19905;-96
2022/12/27 01:37:17;;;;;;;;;;;;;;;;;;2548088;23;19940;-95
2022/12/27 01:38:17;;;;;;;;;;;;;;;;;;2549822;23;19910;-96
2022/12/27 01:39:19;;;;;;;;;;;;;;;;;;2548886;23;20404;-95
2022/12/27 01:40:23;;;;;;;;;;;;;;;;;;2548234;23;19919;-95
2022/12/27 01:42:51;;;;;;;;;;;;;;;;;;2552118;23;19908;-94
2022/12/27 01:43:51;;;;;;;;;;;;;;;;;;2550780;23;20284;-92
2022/12/27 01:44:55;;;;;;;;;;;;;;;;;;2550722;23;20013;-92
2022/12/27 01:45:57;;;;;;;;;;;;;;;;;;2545466;23;19959;-95
2022/12/27 01:46:57;;;;;;;;;;;;;;;;;;2547037;23;19904;-93
2022/12/27 01:48:00;;;;;;;;;;;;;;;;;;2546253;23;19905;-95
2022/12/27 01:49:00;;;;;;;;;;;;;;;;;;2547738;23;20376;-95
2022/12/27 01:50:04;;;;;;;;;;;;;;;;;;2546816;23;19905;-94
2022/12/27 01:51:05;;;;;;;;;;;;;;;;;;2552360;23;19892;-94
2022/12/27 01:52:06;;;;;;;;;;;;;;;;;;2553139;23;19935;-94
2022/12/27 01:53:15;;;;;;;;;;;;;;;;;;2539579;23;19905;-94
2022/12/27 01:54:16;;;;;;;;;;;;;;;;;;2552721;23;19909;-94
2022/12/27 01:55:24;;;;;;;;;;;;;;;;;;2553284;23;19956;-94
2022/12/27 01:56:28;;;;;;;;;;;;;;;;;;2548498;23;19904;-93
2022/12/27 01:57:29;;;;;;;;;;;;;;;;;;2549042;23;20005;-92
2022/12/27 01:58:32;;;;;;;;;;;;;;;;;;2549098;23;19904;-93
2022/12/27 01:59:33;;;;;;;;;;;;;;;;;;2550463;23;20408;-95
2022/12/27 02:00:33;;;;;;;;;;;;;;;;;;2553034;23;19892;-93
2022/12/27 02:01:42;;;;;;;;;;;;;;;;;;2555795;23;19900;-95
2022/12/27 02:02:44;;;;;;;;;;;;;;;;;;2552548;23;20372;-93
2022/12/27 02:03:47;;;;;;;;;;;;;;;;;;2548912;23;19908;-93
2022/12/27 02:04:47;;;;;;;;;;;;;;;;;;2562520;23;19908;-93
2022/12/27 02:05:49;;;;;;;;;;;;;;;;;;2547486;23;19905;-94
2022/12/27 02:06:50;;;;;;;;;;;;;;;;;;2550470;23;20387;-93
2022/12/27 02:08:03;;;;;;;;;;;;;;;;;;2549190;23;19910;-93
2022/12/27 02:09:10;;;;;;;;;;;;;;;;;;2558424;23;19900;-91
2022/12/27 02:10:10;;;;;;;;;;;;;;;;;;2558381;23;19951;-90
2022/12/27 02:11:12;;;;;;;;;;;;;;;;;;2557357;23;19900;-91
2022/12/27 02:12:12;;;;;;;;;;;;;;;;;;2557378;23;19900;-92
2022/12/27 02:13:13;;;;;;;;;;;;;;;;;;2561083;22;19900;-93
2022/12/27 02:14:15;;;;;;;;;;;;;;;;;;2553176;23;19908;-93
2022/12/27 02:15:15;;;;;;;;;;;;;;;;;;2550283;23;19979;-93
2022/12/27 02:16:16;;;;;;;;;;;;;;;;;;2544618;23;19905;-92
2022/12/27 02:17:27;;;;;;;;;;;;;;;;;;2546477;23;19900;-93
2022/12/27 02:18:27;;;;;;;;;;;;;;;;;;2546581;23;19911;-91
2022/12/27 02:19:40;;;;;;;;;;;;;;;;;;2534011;23;19905;-93
2022/12/27 02:20:46;;;;;;;;;;;;;;;;;;2548533;23;19908;-93
2022/12/27 02:22:06;;;;;;;;;;;;;;;;;;2546415;23;20314;-94
2022/12/27 02:24:35;;;;;;;;;;;;;;;;;;2550586;23;19952;-92
2022/12/27 02:25:50;;;;;;;;;;;;;;;;;;2546263;23;19963;-94
2022/12/27 02:26:52;;;;;;;;;;;;;;;;;;2548984;23;19966;-94
2022/12/27 02:27:58;;;;;;;;;;;;;;;;;;2545884;23;20340;-94
2022/12/27 02:29:16;;;;;;;;;;;;;;;;;;2547219;23;19919;-93
2022/12/27 02:30:16;;;;;;;;;;;;;;;;;;2545729;23;19912;-93
2022/12/27 02:31:23;;;;;;;;;;;;;;;;;;2545880;23;19904;-93
2022/12/27 02:32:24;;;;;;;;;;;;;;;;;;2546127;23;19965;-93
2022/12/27 02:33:26;;;;;;;;;;;;;;;;;;2545815;23;19912;-94
2022/12/27 02:34:34;;;;;;;;;;;;;;;;;;2545796;23;20011;-93
2022/12/27 02:35:38;;;;;;;;;;;;;;;;;;2547023;23;19904;-92
2022/12/27 02:36:40;;;;;;;;;;;;;;;;;;2548480;23;19970;-93
2022/12/27 02:37:46;;;;;;;;;;;;;;;;;;2548594;23;19905;-94
2022/12/27 02:38:48;;;;;;;;;;;;;;;;;;2546909;23;19987;-95
2022/12/27 02:39:49;;;;;;;;;;;;;;;;;;2548383;23;19904;-94
2022/12/27 02:54:01;;;;;;;;;;;;;;;;;;2559215;23;19908;-94
2022/12/27 02:55:26;;;;;;;;;;;;;;;;;;2547707;23;19905;-94
2022/12/27 02:58:17;;;;;;;;;;;;;;;;;;2551977;23;19909;-95
2022/12/27 02:59:24;;;;;;;;;;;;;;;;;;2551090;23;19904;-95
2022/12/27 03:03:27;;;;;;;;;;;;;;;;;;2554776;23;19920;-95
2022/12/27 03:04:48;;;;;;;;;;;;;;;;;;2566143;23;19963;-95
2022/12/27 03:07:32;;;;;;;;;;;;;;;;;;2558670;23;19892;-96
2022/12/27 03:08:36;;;;;;;;;;;;;;;;;;2564476;23;19923;-95
2022/12/27 03:16:54;;;;;;;;;;;;;;;;;;2557862;23;19905;-94
2022/12/27 03:18:01;;;;;;;;;;;;;;;;;;2555861;23;19905;-94
2022/12/27 03:19:11;;;;;;;;;;;;;;;;;;2548063;23;19932;-94
2022/12/27 03:25:26;;;;;;;;;;;;;;;;;;2548003;23;19928;-95
2022/12/27 03:25:35;;;;;;;;;;;;;;;;;;2551165;23;19904;-94
2022/12/27 03:26:36;;;;;;;;;;;;;;;;;;2547711;23;19904;-95
2022/12/27 03:27:41;;;;;;;;;;;;;;;;;;2548648;23;19967;-95
2022/12/27 03:34:31;;;;;;;;;;;;;;;;;;2552981;23;19908;-92
2022/12/27 03:35:34;;;;;;;;;;;;;;;;;;2549160;23;20249;-94
2022/12/27 03:38:04;;;;;;;;;;;;;;;;;;2551408;23;19904;-93
2022/12/27 03:39:16;;;;;;;;;;;;;;;;;;2546014;23;19969;-94
2022/12/27 03:40:23;;;;;;;;;;;;;;;;;;2548827;23;19960;-93
2022/12/27 03:43:12;;;;;;;;;;;;;;;;;;2552805;23;19908;-95
2022/12/27 03:44:24;;;;;;;;;;;;;;;;;;2550842;23;19904;-95
2022/12/27 03:46:32;;;;;;;;;;;;;;;;;;2549032;23;19904;-95
2022/12/27 03:46:47;;;;;;;;;;;;;;;;;;2546694;23;19904;-95
2022/12/27 03:47:52;;;;;;;;;;;;;;;;;;2546683;23;19968;-94
2022/12/27 03:49:17;;;;;;;;;;;;;;;;;;2546205;23;19912;-94
2022/12/27 03:50:24;;;;;;;;;;;;;;;;;;2551036;23;20313;-94
2022/12/27 03:51:26;;;;;;;;;;;;;;;;;;2546044;23;19909;-94
2022/12/27 03:52:33;;;;;;;;;;;;;;;;;;2545788;23;19974;-95
2022/12/27 03:53:38;;;;;;;;;;;;;;;;;;2547150;23;20368;-93
2022/12/27 03:54:40;;;;;;;;;;;;;;;;;;2545593;23;19904;-94
2022/12/27 03:55:40;;;;;;;;;;;;;;;;;;2546076;23;20392;-94
2022/12/27 03:56:41;;;;;;;;;;;;;;;;;;2546007;23;19936;-93
2022/12/27 03:57:42;;;;;;;;;;;;;;;;;;2547252;23;19972;-93
2022/12/27 03:58:42;;;;;;;;;;;;;;;;;;2548316;23;20100;-93
2022/12/27 03:59:43;;;;;;;;;;;;;;;;;;2546970;23;19924;-94
2022/12/27 04:00:43;;;;;;;;;;;;;;;;;;2546320;23;19987;-94
2022/12/27 04:01:43;;;;;;;;;;;;;;;;;;2533878;23;19995;-94
2022/12/27 04:02:44;;;;;;;;;;;;;;;;;;2534465;23;19912;-94
2022/12/27 04:06:06;;;;;;;;;;;;;;;;;;2548158;23;19917;-94
2022/12/27 04:07:07;;;;;;;;;;;;;;;;;;2536717;23;19928;-94
2022/12/27 04:34:42;;;;;;;;;;;;;;;;;;2557571;23;19901;-94
2022/12/27 04:35:42;;;;;;;;;;;;;;;;;;2544462;23;19904;-95
2022/12/27 04:37:54;;;;;;;;;;;;;;;;;;2546439;23;19917;-94
2022/12/27 04:38:56;;;;;;;;;;;;;;;;;;2551985;23;19916;-94
2022/12/27 04:54:57;;;;;;;;;;;;;;;;;;2561650;23;19912;-93
2022/12/27 04:55:58;;;;;;;;;;;;;;;;;;2556126;23;19907;-92
2022/12/27 04:56:58;;;;;;;;;;;;;;;;;;2554875;23;19928;-91
2022/12/27 04:57:58;;;;;;;;;;;;;;;;;;2536012;23;19909;-91
2022/12/27 05:02:57;;;;;;;;;;;;;;;;;;2550393;23;19988;-92
2022/12/27 05:03:57;;;;;;;;;;;;;;;;;;2550084;23;19905;-92
2022/12/27 05:04:57;;;;;;;;;;;;;;;;;;2544888;23;19935;-91
2022/12/27 05:05:59;;;;;;;;;;;;;;;;;;2544342;23;19912;-90
2022/12/27 05:13:58;;;;;;;;;;;;;;;;;;2549099;23;19912;-91
2022/12/27 05:14:54;;;;;;;;;;;;;;;;;;2549537;23;19904;-91
2022/12/27 05:15:57;;;;;;;;;;;;;;;;;;2544646;23;19904;-92
2022/12/27 05:16:57;;;;;;;;;;;;;;;;;;2544806;23;19905;-91
2022/12/27 05:17:57;;;;;;;;;;;;;;;;;;2544768;23;19911;-90
2022/12/27 05:18:58;;;;;;;;;;;;;;;;;;2548715;23;19911;-90
2022/12/27 05:19:58;;;;;;;;;;;;;;;;;;2117266;23;10058888;-91
2022/12/27 05:21:04;;;;;;;;;;;;;;;;;;2532233;23;20251;-89
2022/12/27 05:26:03;;;;;;;;;;;;;;;;;;2553020;23;19905;-96
2022/12/27 05:27:04;;;;;;;;;;;;;;;;;;2545977;23;19932;-94
2022/12/27 05:28:06;;;;;;;;;;;;;;;;;;2534149;23;19904;-93
2022/12/27 05:29:07;;;;;;;;;;;;;;;;;;2546291;23;20249;-95
2022/12/27 05:30:07;;;;;;;;;;;;;;;;;;2545879;23;19936;-95
2022/12/27 05:31:08;;;;;;;;;;;;;;;;;;2550028;23;19924;-94
2022/12/27 05:32:09;;;;;;;;;;;;;;;;;;2547226;23;19904;-94
2022/12/27 05:33:09;;;;;;;;;;;;;;;;;;2546408;23;19905;-94
2022/12/27 05:34:11;;;;;;;;;;;;;;;;;;2533924;23;19904;-96
2022/12/27 05:35:11;;;;;;;;;;;;;;;;;;2546268;23;19924;-93
2022/12/27 05:36:11;;;;;;;;;;;;;;;;;;2546740;23;19928;-93
2022/12/27 05:37:12;;;;;;;;;;;;;;;;;;2545540;23;19930;-93
2022/12/27 05:38:12;;;;;;;;;;;;;;;;;;2545643;23;19911;-94
2022/12/27 05:39:12;;;;;;;;;;;;;;;;;;2546217;23;19963;-95
2022/12/27 05:40:13;;;;;;;;;;;;;;;;;;2533495;23;19905;-95
2022/12/27 05:41:13;;;;;;;;;;;;;;;;;;2533301;23;19984;-94
2022/12/27 05:42:14;;;;;;;;;;;;;;;;;;2533303;23;19909;-92
2022/12/27 05:43:14;;;;;;;;;;;;;;;;;;2550057;23;20326;-96
2022/12/27 05:44:14;;;;;;;;;;;;;;;;;;2546700;23;19905;-96
2022/12/27 05:45:15;;;;;;;;;;;;;;;;;;2546647;23;19970;-95
2022/12/27 05:46:17;;;;;;;;;;;;;;;;;;2547101;23;19908;-93
2022/12/27 05:47:17;;;;;;;;;;;;;;;;;;2535932;23;19928;-93
2022/12/27 05:48:18;;;;;;;;;;;;;;;;;;2553494;23;19904;-91
2022/12/27 05:49:18;;;;;;;;;;;;;;;;;;2555892;23;19892;-91
2022/12/27 05:50:19;;;;;;;;;;;;;;;;;;2555790;23;19963;-95
2022/12/27 05:51:19;;;;;;;;;;;;;;;;;;2548737;23;19912;-95
2022/12/27 05:52:20;;;;;;;;;;;;;;;;;;2535598;23;19915;-94
2022/12/27 05:53:20;;;;;;;;;;;;;;;;;;2547306;23;19905;-94
2022/12/27 05:54:21;;;;;;;;;;;;;;;;;;2535321;23;19905;-96
2022/12/27 05:55:21;;;;;;;;;;;;;;;;;;2546464;23;19983;-96
2022/12/27 05:56:21;;;;;;;;;;;;;;;;;;2545894;23;19904;-93
2022/12/27 05:57:22;;;;;;;;;;;;;;;;;;2533680;23;19904;-94
2022/12/27 05:58:22;;;;;;;;;;;;;;;;;;2533350;23;20322;-94
2022/12/27 05:59:22;;;;;;;;;;;;;;;;;;2534044;23;19912;-95
2022/12/27 06:00:23;;;;;;;;;;;;;;;;;;2533948;23;19908;-96
2022/12/27 06:01:23;;;;;;;;;;;;;;;;;;2534544;23;19909;-96
2022/12/27 06:02:24;;;;;;;;;;;;;;;;;;2536010;23;20036;-95
2022/12/27 06:03:28;;;;;;;;;;;;;;;;;;2547742;23;19911;-95
2022/12/27 06:04:31;;;;;;;;;;;;;;;;;;2537219;23;19904;-95
2022/12/27 06:05:32;;;;;;;;;;;;;;;;;;2536286;23;19920;-96
2022/12/27 06:06:33;;;;;;;;;;;;;;;;;;2524182;23;20218;-95
2022/12/27 06:07:34;;;;;;;;;;;;;;;;;;2535104;23;20223;-95
2022/12/27 06:08:35;;;;;;;;;;;;;;;;;;2546879;23;19904;-94
2022/12/27 06:09:35;;;;;;;;;;;;;;;;;;2546361;23;20297;-94
2022/12/27 06:10:36;;;;;;;;;;;;;;;;;;2545794;23;20339;-94
2022/12/27 06:11:39;;;;;;;;;;;;;;;;;;2535717;23;19905;-95
2022/12/27 06:12:39;;;;;;;;;;;;;;;;;;2551659;23;19931;-94
2022/12/27 06:13:44;;;;;;;;;;;;;;;;;;2563732;23;19948;-94
2022/12/27 06:15:05;;;;;;;;;;;;;;;;;;2552038;23;19936;-95
2022/12/27 06:16:06;;;;;;;;;;;;;;;;;;2552551;23;19916;-94
2022/12/27 06:17:08;;;;;;;;;;;;;;;;;;2546539;23;19908;-93
2022/12/27 06:18:08;;;;;;;;;;;;;;;;;;2548484;23;19936;-96
2022/12/27 06:19:10;;;;;;;;;;;;;;;;;;2548708;23;19930;-95
2022/12/27 06:20:15;;;;;;;;;;;;;;;;;;2548635;23;20313;-94
2022/12/27 06:21:17;;;;;;;;;;;;;;;;;;2549151;23;20178;-96
2022/12/27 06:22:17;;;;;;;;;;;;;;;;;;2548293;23;19911;-95
2022/12/27 06:23:18;;;;;;;;;;;;;;;;;;2535608;23;19916;-95
2022/12/27 06:24:28;;;;;;;;;;;;;;;;;;2549521;23;20253;-95
2022/12/27 06:25:28;;;;;;;;;;;;;;;;;;2549212;23;19911;-96
2022/12/27 06:26:30;;;;;;;;;;;;;;;;;;2547934;23;19908;-96
2022/12/27 06:27:30;;;;;;;;;;;;;;;;;;2549062;23;20375;-95
2022/12/27 06:28:31;;;;;;;;;;;;;;;;;;2548224;23;19909;-96
2022/12/27 06:29:33;;;;;;;;;;;;;;;;;;2547839;23;20364;-95
2022/12/27 06:30:36;;;;;;;;;;;;;;;;;;2546629;23;20292;-95
2022/12/27 06:31:37;;;;;;;;;;;;;;;;;;2548297;23;19916;-89
2022/12/27 06:32:37;;;;;;;;;;;;;;;;;;2549349;23;19991;-90
2022/12/27 06:33:37;;;;;;;;;;;;;;;;;;2544249;23;20348;-89
2022/12/27 06:34:38;;;;;;;;;;;;;;;;;;2548453;23;19963;-88
2022/12/27 06:35:38;;;;;;;;;;;;;;;;;;2544596;23;20273;-88
2022/12/27 06:36:38;;;;;;;;;;;;;;;;;;2548613;23;19936;-88
2022/12/27 06:37:39;;;;;;;;;;;;;;;;;;2544504;23;19967;-90
2022/12/27 06:38:39;;;;;;;;;;;;;;;;;;2548873;23;19949;-90
2022/12/27 06:39:39;;;;;;;;;;;;;;;;;;2543892;23;20393;-90
2022/12/27 06:40:40;;;;;;;;;;;;;;;;;;2532084;23;19976;-90
2022/12/27 06:41:40;;;;;;;;;;;;;;;;;;2544543;23;20317;-91
2022/12/27 06:42:40;;;;;;;;;;;;;;;;;;2546997;23;19984;-90
2022/12/27 06:43:41;;;;;;;;;;;;;;;;;;2545022;23;19927;-88
2022/12/27 06:44:41;;;;;;;;;;;;;;;;;;2532653;23;19905;-90
2022/12/27 06:46:01;;;;;;;;;;;;;;;;;;2532973;23;19905;-91
2022/12/27 06:47:01;;;;;;;;;;;;;;;;;;2540267;23;19904;-90
2022/12/27 06:48:07;;;;;;;;;;;;;;;;;;2532941;23;19904;-91
2022/12/27 06:49:09;;;;;;;;;;;;;;;;;;2534240;23;19912;-92
2022/12/27 06:50:09;;;;;;;;;;;;;;;;;;2533045;23;20083;-90
2022/12/27 06:51:10;;;;;;;;;;;;;;;;;;2549511;23;19943;-90
2022/12/27 06:52:13;;;;;;;;;;;;;;;;;;2547025;23;20330;-90
2022/12/27 06:53:13;;;;;;;;;;;;;;;;;;2547594;23;19911;-89
2022/12/27 06:54:13;;;;;;;;;;;;;;;;;;2555136;23;19905;-89
2022/12/27 06:55:16;;;;;;;;;;;;;;;;;;2551622;23;19908;-90
2022/12/27 06:56:17;;;;;;;;;;;;;;;;;;2535171;23;19916;-90
2022/12/27 06:57:18;;;;;;;;;;;;;;;;;;2533009;23;19905;-90
2022/12/27 06:58:20;;;;;;;;;;;;;;;;;;2533105;23;19909;-90
2022/12/27 06:59:21;;;;;;;;;;;;;;;;;;2533322;23;19960;-89
2022/12/27 07:00:21;;;;;;;;;;;;;;;;;;2532944;23;20424;-89
2022/12/27 07:01:23;;;;;;;;;;;;;;;;;;2549781;23;20369;-89
2022/12/27 07:02:23;;;;;;;;;;;;;;;;;;2549633;23;19905;-89
2022/12/27 07:03:24;;;;;;;;;;;;;;;;;;2544887;23;20345;-88
2022/12/27 07:04:24;;;;;;;;;;;;;;;;;;2532824;23;19984;-91
2022/12/27 07:05:24;;;;;;;;;;;;;;;;;;2533122;23;20330;-90
2022/12/27 07:06:57;;;;;;;;;;;;;;;;;;2550293;23;20353;-92
2022/12/27 07:08:12;;;;;;;;;;;;;;;;;;2538628;23;19991;-92
2022/12/27 07:11:00;;;;;;;;;;;;;;;;;;2552193;23;19908;-93
2022/12/27 07:12:03;;;;;;;;;;;;;;;;;;2550398;23;19908;-90
2022/12/27 07:13:04;;;;;;;;;;;;;;;;;;2556033;23;20306;-91
2022/12/27 07:14:16;;;;;;;;;;;;;;;;;;2559151;23;19969;-94
2022/12/27 07:15:17;;;;;;;;;;;;;;;;;;2550068;23;19908;-94
2022/12/27 07:16:28;;;;;;;;;;;;;;;;;;2549860;23;19904;-92
2022/12/27 07:17:32;;;;;;;;;;;;;;;;;;2550860;23;19970;-91
2022/12/27 07:18:33;;;;;;;;;;;;;;;;;;2545917;23;19912;-92
2022/12/27 07:19:33;;;;;;;;;;;;;;;;;;2554254;23;19922;-91
2022/12/27 07:20:39;;;;;;;;;;;;;;;;;;2545558;23;19987;-90
2022/12/27 07:21:39;;;;;;;;;;;;;;;;;;2552389;23;19904;-93
2022/12/27 07:22:40;;;;;;;;;;;;;;;;;;2546230;23;20357;-93
2022/12/27 07:23:40;;;;;;;;;;;;;;;;;;2546461;23;19943;-93
2022/12/27 07:24:40;;;;;;;;;;;;;;;;;;2548210;23;19912;-92
2022/12/27 07:25:41;;;;;;;;;;;;;;;;;;2546238;23;19904;-93
2022/12/27 07:26:42;;;;;;;;;;;;;;;;;;2533274;23;20346;-94
2022/12/27 07:27:43;;;;;;;;;;;;;;;;;;2534433;23;19904;-94
2022/12/27 07:28:43;;;;;;;;;;;;;;;;;;2533758;23;19991;-93
2022/12/27 07:29:44;;;;;;;;;;;;;;;;;;2546415;23;19904;-94
2022/12/27 07:30:45;;;;;;;;;;;;;;;;;;2547891;23;20299;-91
2022/12/27 07:31:45;;;;;;;;;;;;;;;;;;2553185;23;19908;-93
2022/12/27 07:32:46;;;;;;;;;;;;;;;;;;2553473;23;19964;-92
2022/12/27 07:33:46;;;;;;;;;;;;;;;;;;2543856;23;19985;-92
2022/12/27 07:34:46;;;;;;;;;;;;;;;;;;2544015;23;19913;-91
2022/12/27 07:35:47;;;;;;;;;;;;;;;;;;2555793;23;20288;-91
2022/12/27 07:36:50;;;;;;;;;;;;;;;;;;2552251;23;19904;-92
2022/12/27 07:38:09;;;;;;;;;;;;;;;;;;;;;
2022/12/27 07:39:09;;;;;;;;;;;;;;;;;;2551813;23;20320;-92
2022/12/27 07:40:10;;;;;;;;;;;;;;;;;;2548477;23;19904;-92
2022/12/27 07:41:10;;;;;;;;;;;;;;;;;;2547989;23;19936;-92
2022/12/27 07:42:11;;;;;;;;;;;;;;;;;;2550391;23;19959;-90
2022/12/27 07:43:11;;;;;;;;;;;;;;;;;;2550098;23;19915;-92
2022/12/27 07:44:12;;;;;;;;;;;;;;;;;;2545294;23;20240;-93
2022/12/27 07:45:12;;;;;;;;;;;;;;;;;;2545067;23;19979;-91
2022/12/27 07:46:14;;;;;;;;;;;;;;;;;;2545097;23;20450;-92
2022/12/27 07:47:14;;;;;;;;;;;;;;;;;;2533041;23;19959;-91
2022/12/27 07:48:15;;;;;;;;;;;;;;;;;;2533118;23;19908;-91
2022/12/27 07:49:15;;;;;;;;;;;;;;;;;;2549665;23;19940;-92
2022/12/27 07:50:15;;;;;;;;;;;;;;;;;;2545405;23;19909;-92
2022/12/27 07:51:16;;;;;;;;;;;;;;;;;;2548809;23;19939;-91
2022/12/27 07:52:16;;;;;;;;;;;;;;;;;;2545403;23;19987;-92
2022/12/27 07:53:16;;;;;;;;;;;;;;;;;;2545316;23;20377;-92
2022/12/27 07:54:52;;;;;;;;;;;;;;;;;;2544468;23;19967;-91
2022/12/27 07:55:52;;;;;;;;;;;;;;;;;;2552675;23;20307;-91
2022/12/27 07:56:53;;;;;;;;;;;;;;;;;;2561569;23;19939;-91
2022/12/27 07:57:53;;;;;;;;;;;;;;;;;;2544867;23;19904;-90
2022/12/27 07:58:55;;;;;;;;;;;;;;;;;;2549840;23;19960;-94
2022/12/27 07:59:55;;;;;;;;;;;;;;;;;;2529958;23;19964;-91
2022/12/27 08:00:57;;;;;;;;;;;;;;;;;;2548798;23;19924;-91
2022/12/27 08:02:03;;;;;;;;;;;;;;;;;;2545933;23;20289;-89
2022/12/27 08:03:04;;;;;;;;;;;;;;;;;;2548839;23;19987;-89
2022/12/27 08:04:04;;;;;;;;;;;;;;;;;;2546913;23;19904;-89
2022/12/27 08:05:04;;;;;;;;;;;;;;;;;;2545314;23;19904;-91
2022/12/27 08:06:15;;;;;;;;;;;;;;;;;;2211363;23;10057653;-89
2022/12/27 08:07:17;;;;;;;;;;;;;;;;;;2549805;23;19905;-91
2022/12/27 08:08:19;;;;;;;;;;;;;;;;;;2544526;23;19904;-91
2022/12/27 08:09:24;;;;;;;;;;;;;;;;;;2532547;23;19912;-92
2022/12/27 08:10:25;;;;;;;;;;;;;;;;;;2548079;23;19939;-91
2022/12/27 08:11:25;;;;;;;;;;;;;;;;;;2548687;23;20175;-89
2022/12/27 08:12:25;;;;;;;;;;;;;;;;;;2543798;23;19920;-90
2022/12/27 08:13:26;;;;;;;;;;;;;;;;;;2530641;23;19936;-91
2022/12/27 08:14:26;;;;;;;;;;;;;;;;;;2532528;23;19905;-90
2022/12/27 08:15:27;;;;;;;;;;;;;;;;;;2548213;23;19904;-90
2022/12/27 08:16:27;;;;;;;;;;;;;;;;;;2549769;23;20253;-90
2022/12/27 08:17:27;;;;;;;;;;;;;;;;;;2543685;23;20367;-90
2022/12/27 08:18:28;;;;;;;;;;;;;;;;;;2545734;23;20359;-91
2022/12/27 08:19:28;;;;;;;;;;;;;;;;;;2544344;23;20328;-90
2022/12/27 08:20:28;;;;;;;;;;;;;;;;;;2543920;23;19904;-91
2022/12/27 08:21:29;;;;;;;;;;;;;;;;;;2546910;23;19912;-90
2022/12/27 08:22:29;;;;;;;;;;;;;;;;;;2543769;23;19979;-89
2022/12/27 08:23:29;;;;;;;;;;;;;;;;;;2529525;23;19905;-90
2022/12/27 08:24:30;;;;;;;;;;;;;;;;;;2529996;23;20108;-90
2022/12/27 08:25:30;;;;;;;;;;;;;;;;;;2546953;23;20329;-91
2022/12/27 08:26:31;;;;;;;;;;;;;;;;;;2542614;23;19905;-91
2022/12/27 08:27:31;;;;;;;;;;;;;;;;;;2543129;23;19928;-92
2022/12/27 08:28:31;;;;;;;;;;;;;;;;;;2542708;23;20308;-91
2022/12/27 08:29:32;;;;;;;;;;;;;;;;;;2547274;23;19904;-89
2022/12/27 08:30:32;;;;;;;;;;;;;;;;;;2542771;23;19916;-91
2022/12/27 08:31:32;;;;;;;;;;;;;;;;;;2547341;23;19904;-91
2022/12/27 08:32:33;;;;;;;;;;;;;;;;;;2547859;23;19936;-91
2022/12/27 08:33:33;;;;;;;;;;;;;;;;;;2542291;23;19904;-91
2022/12/27 08:34:34;;;;;;;;;;;;;;;;;;2542268;23;19908;-90
2022/12/27 08:35:38;;;;;;;;;;;;;;;;;;2541912;23;19909;-91
2022/12/27 08:36:38;;;;;;;;;;;;;;;;;;2543100;23;19908;-90
2022/12/27 08:37:39;;;;;;;;;;;;;;;;;;2545911;23;19912;-90
2022/12/27 08:38:39;;;;;;;;;;;;;;;;;;2547331;23;19987;-90
2022/12/27 08:39:40;;;;;;;;;;;;;;;;;;2542948;23;19904;-90
2022/12/27 08:40:41;;;;;;;;;;;;;;;;;;2530009;23;19904;-90
2022/12/27 08:41:44;;;;;;;;;;;;;;;;;;2543183;23;19971;-91
2022/12/27 08:42:45;;;;;;;;;;;;;;;;;;2543399;23;19905;-92
2022/12/27 08:43:45;;;;;;;;;;;;;;;;;;2546752;23;19904;-91
2022/12/27 08:44:46;;;;;;;;;;;;;;;;;;2552168;23;19943;-90
2022/12/27 08:45:46;;;;;;;;;;;;;;;;;;2554454;23;19924;-91
2022/12/27 08:46:46;;;;;;;;;;;;;;;;;;2547997;23;19923;-91
2022/12/27 08:47:47;;;;;;;;;;;;;;;;;;2549749;23;19927;-92
2022/12/27 08:48:47;;;;;;;;;;;;;;;;;;2549160;23;19995;-93
2022/12/27 08:49:48;;;;;;;;;;;;;;;;;;2543895;23;19905;-91